Time;durP1;ratioP1;P1;durP2;ratioP2;P2;SDS_P1;SDS_P2;PMS_P1;PMS_P2;Temp;Humidity;BMP_temperature;BMP_pressure;BME280_temperature;BME280_humidity;BME280_pressure;Samples;Min_cycle;Max_cycle;Signal;HPM_P1;HPM_P2
2021/09/10 05:01:36;;;;;;;5.55;4.75;;;;;;;12.29;100.00;95208.78;5591037;23;20160;-88
2021/09/10 05:04:01;;;;;;;6.03;5.40;;;;;;;12.53;100.00;95197.38;4935785;28;20039;-86
2021/09/10 05:06:28;;;;;;;7.43;5.43;;;;;;;12.14;100.00;95179.34;4953770;28;20027;-87
2021/09/10 05:08:54;;;;;;;5.70;4.72;;;;;;;12.49;100.00;95177.94;4935720;28;20023;-84
2021/09/10 05:11:19;;;;;;;5.93;5.43;;;;;;;12.66;100.00;95168.97;4914113;29;20034;-85
2021/09/10 05:13:45;;;;;;;6.45;4.95;;;;;;;12.87;100.00;95158.72;4935304;28;20035;-84
2021/09/10 05:16:10;;;;;;;4.80;4.43;;;;;;;13.09;100.00;95152.63;4949957;28;20031;-83
2021/09/10 05:18:35;;;;;;;5.72;5.20;;;;;;;13.47;100.00;95149.88;4966289;28;20404;-84
2021/09/10 05:21:01;;;;;;;4.93;4.53;;;;;;;13.62;98.71;95143.63;4940336;28;20211;-84
2021/09/10 05:23:26;;;;;;;4.63;4.10;;;;;;;14.35;96.38;95128.69;4969160;28;20023;-83
2021/09/10 05:25:52;;;;;;;4.07;3.75;;;;;;;15.56;89.01;95102.84;4978470;28;20049;-83
2021/09/10 05:28:17;;;;;;;4.38;3.97;;;;;;;15.06;90.71;95110.03;4968196;28;20039;-84
2021/09/10 05:30:43;;;;;;;6.60;3.80;;;;;;;15.54;89.20;95110.06;4969515;28;20027;-82
2021/09/10 05:33:08;;;;;;;5.10;3.25;;;;;;;16.02;88.17;95100.28;4945735;28;20101;-84
2021/09/10 05:35:33;;;;;;;6.47;3.17;;;;;;;16.43;86.83;95097.47;4935536;28;20030;-83
2021/09/10 05:37:59;;;;;;;4.53;3.05;;;;;;;18.14;79.17;95085.25;4968336;28;20034;-82
2021/09/10 05:40:26;;;;;;;4.88;3.50;;;;;;;22.06;63.26;95070.78;4935965;28;20023;-82
2021/09/10 05:42:51;;;;;;;3.20;2.90;;;;;;;22.80;59.98;95081.97;4934973;28;20034;-82
2021/09/10 05:45:17;;;;;;;4.28;2.72;;;;;;;23.30;57.75;95074.72;4932997;29;20019;-83
2021/09/10 05:47:42;;;;;;;3.20;3.00;;;;;;;24.31;55.14;95078.44;4961199;28;20038;-83
2021/09/10 05:50:08;;;;;;;5.45;3.25;;;;;;;24.47;54.45;95077.50;4952007;28;20019;-84
2021/09/10 05:52:33;;;;;;;4.03;2.90;;;;;;;24.73;54.54;95075.81;4949186;28;20484;-84
2021/09/10 05:54:59;;;;;;;4.57;3.15;;;;;;;24.61;53.61;95070.72;4967861;28;20031;-84
2021/09/10 05:57:25;;;;;;;3.75;2.92;;;;;;;22.47;60.56;95078.34;4951276;28;20086;-84
2021/09/10 05:59:51;;;;;;;3.30;2.85;;;;;;;20.50;67.25;95086.88;4962761;28;20050;-83
2021/09/10 06:02:17;;;;;;;2.97;2.78;;;;;;;20.82;68.07;95082.84;4946058;28;20043;-85
2021/09/10 06:04:43;;;;;;;3.80;2.90;;;;;;;20.65;68.39;95081.13;4967685;28;20027;-84
2021/09/10 06:07:08;;;;;;;3.55;2.80;;;;;;;20.55;67.37;95086.19;4969207;28;20045;-83
2021/09/10 06:09:33;;;;;;;3.17;2.40;;;;;;;20.85;67.39;95071.06;4966406;28;20027;-84
2021/09/10 06:11:59;;;;;;;3.88;2.47;;;;;;;21.05;66.59;95079.38;4984118;28;20030;-81
2021/09/10 06:14:24;;;;;;;3.10;2.80;;;;;;;21.64;65.36;95080.06;4981864;28;20039;-82
2021/09/10 06:16:51;;;;;;;3.17;2.85;;;;;;;21.63;63.05;95081.88;4947178;28;20480;-81
2021/09/10 06:19:16;;;;;;;3.40;2.10;;;;;;;22.01;64.67;95076.78;4966811;28;20022;-79
2021/09/10 06:21:41;;;;;;;5.13;2.47;;;;;;;23.71;59.56;95072.53;4965141;28;20019;-80
2021/09/10 06:24:07;;;;;;;3.08;2.45;;;;;;;26.18;51.12;95064.22;4963958;28;20081;-80
2021/09/10 06:26:33;;;;;;;3.88;2.95;;;;;;;28.45;45.08;95067.94;4948888;28;20034;-80
2021/09/10 06:28:58;;;;;;;3.65;2.80;;;;;;;29.57;42.22;95078.31;4972499;28;20034;-81
2021/09/10 06:31:24;;;;;;;5.57;3.10;;;;;;;29.84;41.27;95077.72;4969190;28;20401;-82
2021/09/10 06:33:49;;;;;;;3.47;2.40;;;;;;;29.52;41.44;95084.50;4971050;28;20046;-82
2021/09/10 06:36:14;;;;;;;7.32;3.05;;;;;;;30.58;40.53;95076.88;4954117;28;20034;-84
2021/09/10 06:38:40;;;;;;;10.65;2.40;;;;;;;31.15;39.02;95087.13;4970083;28;20035;-81
2021/09/10 06:41:05;;;;;;;3.42;2.90;;;;;;;31.51;38.66;95087.28;4971098;28;20019;-81
2021/09/10 06:43:31;;;;;;;3.35;2.60;;;;;;;31.77;37.96;95090.22;4953050;28;20041;-82
2021/09/10 06:45:56;;;;;;;4.88;3.35;;;;;;;32.00;37.36;95086.50;4970164;28;20031;-82
2021/09/10 06:48:22;;;;;;;5.50;3.17;;;;;;;32.84;35.76;95092.88;4936163;28;20042;-83
2021/09/10 06:50:47;;;;;;;4.13;2.95;;;;;;;33.49;34.91;95089.56;4972502;28;20027;-80
2021/09/10 06:53:13;;;;;;;6.53;4.30;;;;;;;31.21;37.26;95085.94;4937122;28;20030;-80
2021/09/10 06:55:38;;;;;;;4.03;3.63;;;;;;;33.29;34.61;95082.88;4954542;28;20031;-80
2021/09/10 06:58:03;;;;;;;6.85;4.55;;;;;;;31.35;37.87;95077.91;4952958;28;20041;-79
2021/09/10 07:00:29;;;;;;;5.47;3.75;;;;;;;31.21;37.56;95082.50;4933863;29;20027;-84
2021/09/10 07:02:54;;;;;;;4.55;4.15;;;;;;;32.62;35.34;95079.50;4951355;28;20047;-82
2021/09/10 07:05:20;;;;;;;4.18;3.63;;;;;;;32.08;34.89;95077.75;4969466;28;20081;-79
2021/09/10 07:07:46;;;;;;;7.20;5.63;;;;;;;26.82;45.92;95081.47;4951426;28;20046;-79
2021/09/10 07:10:11;;;;;;;7.32;6.40;;;;;;;24.86;50.98;95082.56;4950295;28;20070;-81
2021/09/10 07:12:37;;;;;;;6.05;4.68;;;;;;;25.13;53.33;95080.59;4952359;28;20031;-81
2021/09/10 07:15:03;;;;;;;6.03;4.85;;;;;;;24.61;53.37;95081.31;4967903;28;20030;-80
2021/09/10 07:17:29;;;;;;;5.47;4.25;;;;;;;24.86;52.36;95079.91;4969617;28;20031;-81
2021/09/10 07:19:55;;;;;;;4.97;4.20;;;;;;;24.30;53.63;95087.44;4954175;28;20085;-82
2021/09/10 07:22:20;;;;;;;4.28;3.80;;;;;;;24.02;56.35;95092.97;4967753;28;20054;-80
2021/09/10 07:24:46;;;;;;;5.35;3.78;;;;;;;24.58;54.67;95088.97;4953782;28;20539;-81
2021/09/10 07:27:11;;;;;;;5.88;3.92;;;;;;;23.74;53.87;95095.84;4968729;28;20105;-82
2021/09/10 07:29:37;;;;;;;5.53;3.42;;;;;;;24.01;54.42;95100.13;4953978;28;20097;-81
2021/09/10 07:32:02;;;;;;;8.02;4.00;;;;;;;23.10;55.75;95093.78;4969287;28;20038;-80
2021/09/10 07:34:28;;;;;;;5.75;4.13;;;;;;;23.89;55.45;95088.09;4953467;28;20038;-82
2021/09/10 07:36:53;;;;;;;18.40;4.40;;;;;;;22.94;55.35;95091.16;4937209;28;20034;-81
2021/09/10 07:39:19;;;;;;;4.32;3.92;;;;;;;23.49;57.12;95089.25;4969199;28;20035;-81
2021/09/10 07:41:45;;;;;;;5.47;3.70;;;;;;;24.06;55.16;95084.28;4953773;28;20034;-81
2021/09/10 07:44:13;;;;;;;5.20;3.50;;;;;;;24.09;55.63;95088.28;4952417;28;20027;-80
2021/09/10 07:46:39;;;;;;;4.18;3.50;;;;;;;23.30;58.63;95082.66;4954006;28;20062;-83
2021/09/10 07:49:04;;;;;;;4.18;3.20;;;;;;;23.80;54.33;95094.88;4968260;28;20081;-81
2021/09/10 07:51:30;;;;;;;6.68;3.50;;;;;;;23.24;55.62;95085.47;4970832;28;20031;-82
2021/09/10 07:53:55;;;;;;;6.93;3.00;;;;;;;23.35;56.20;95085.34;4968385;28;20512;-82
2021/09/10 07:56:21;;;;;;;5.55;2.97;;;;;;;22.78;54.75;95086.72;4970639;28;20026;-80
2021/09/10 07:58:46;;;;;;;3.20;3.00;;;;;;;23.01;56.92;95083.88;4969029;28;20027;-80
2021/09/10 08:01:11;;;;;;;6.18;3.50;;;;;;;22.22;56.25;95083.19;4968006;28;20058;-79
2021/09/10 08:03:37;;;;;;;4.90;3.00;;;;;;;22.63;57.60;95079.34;4969033;28;20042;-79
2021/09/10 08:06:02;;;;;;;8.38;2.55;;;;;;;23.32;55.27;95080.56;4969046;28;20521;-80
2021/09/10 08:08:28;;;;;;;6.90;3.00;;;;;;;22.81;57.14;95078.31;4953345;28;20158;-83
2021/09/10 08:10:53;;;;;;;3.83;3.30;;;;;;;23.44;54.78;95075.16;4951738;28;20018;-79
2021/09/10 08:13:19;;;;;;;3.15;2.47;;;;;;;24.06;54.11;95078.19;4970607;28;20042;-80
2021/09/10 08:15:44;;;;;;;4.90;2.60;;;;;;;23.82;53.76;95082.19;4969513;28;20039;-81
2021/09/10 08:18:10;;;;;;;7.07;2.70;;;;;;;23.94;52.50;95085.50;4952466;28;20509;-81
2021/09/10 08:20:35;;;;;;;4.53;2.72;;;;;;;23.47;51.68;95080.75;4952965;28;20034;-80
2021/09/10 08:23:01;;;;;;;7.32;3.30;;;;;;;22.89;51.92;95083.19;4967099;28;20023;-81
2021/09/10 08:25:26;;;;;;;5.68;3.20;;;;;;;22.62;53.43;95079.56;4970320;28;20030;-80
2021/09/10 08:27:52;;;;;;;7.80;2.80;;;;;;;23.43;51.76;95074.38;4967495;28;20501;-82
2021/09/10 08:30:17;;;;;;;5.10;2.60;;;;;;;23.11;53.29;95078.72;4970335;28;20031;-80
2021/09/10 08:32:43;;;;;;;4.28;2.78;;;;;;;23.76;53.17;95072.63;4967222;28;20038;-82
2021/09/10 08:35:08;;;;;;;4.38;3.05;;;;;;;23.66;52.71;95077.81;4970314;28;20031;-81
2021/09/10 08:37:34;;;;;;;6.25;2.92;;;;;;;22.75;52.78;95064.22;4969957;28;20579;-79
2021/09/10 08:40:01;;;;;;;4.63;2.65;;;;;;;22.72;53.53;95066.56;4969121;28;20089;-80
2021/09/10 08:42:26;;;;;;;4.97;3.08;;;;;;;23.61;53.01;95058.19;4968957;28;20030;-79
2021/09/10 08:44:52;;;;;;;10.07;3.10;;;;;;;23.09;53.73;95059.63;4967914;28;20519;-82
2021/09/10 08:47:17;;;;;;;4.82;2.70;;;;;;;23.07;55.42;95056.47;4970420;28;20031;-80
2021/09/10 08:49:45;;;;;;;3.83;2.60;;;;;;;23.82;50.86;95047.81;4966984;28;20029;-77
2021/09/10 08:52:11;;;;;;;5.30;2.90;;;;;;;23.65;52.52;95047.91;4969764;28;20023;-80
2021/09/10 08:54:36;;;;;;;4.50;2.85;;;;;;;23.32;52.22;95051.47;4967245;28;20065;-81
2021/09/10 08:57:02;;;;;;;6.55;2.45;;;;;;;23.65;51.06;95047.09;4951873;28;20605;-81
2021/09/10 08:59:27;;;;;;;5.68;2.72;;;;;;;24.37;50.07;95047.50;4952380;28;20113;-80
2021/09/10 09:01:54;;;;;;;4.68;2.75;;;;;;;23.79;50.63;95048.31;4966642;28;20121;-81
2021/09/10 09:04:20;;;;;;;6.15;2.90;;;;;;;23.03;51.34;95045.56;4952808;28;20030;-82
2021/09/10 09:06:53;;;;;;;6.30;2.97;;;;;;;22.57;52.88;95046.00;4966292;28;20035;-82
2021/09/10 09:09:37;;;;;;;7.78;3.40;;;;;;;23.56;51.89;95039.63;4952726;28;20109;-80
2021/09/10 09:12:22;;;;;;;3.47;2.22;;;;;;;24.36;49.94;95043.25;4968862;28;20589;-82
2021/09/10 09:14:55;;;;;;;4.75;2.40;;;;;;;24.03;49.71;95036.34;4967042;28;20023;-81
2021/09/10 09:17:23;;;;;;;3.47;2.97;;;;;;;24.76;48.50;95032.91;4952393;28;20455;-81
2021/09/10 09:20:14;;;;;;;7.03;2.77;;;;;;;25.38;47.38;95025.00;4968156;28;20038;-81
2021/09/10 09:23:11;;;;;;;7.05;2.63;;;;;;;24.57;47.27;95027.22;4969682;28;20499;-81
2021/09/10 09:25:42;;;;;;;5.60;2.08;;;;;;;24.53;47.30;95023.50;4938184;28;20031;-79
2021/09/10 09:28:24;;;;;;;4.07;2.55;;;;;;;24.79;48.85;95024.44;4966699;28;20631;-80
2021/09/10 09:30:51;;;;;;;7.82;2.33;;;;;;;25.05;47.41;95030.69;4969269;28;20109;-83
2021/09/10 09:33:18;;;;;;;5.28;2.45;;;;;;;24.42;47.10;95027.16;4950746;28;20097;-82
2021/09/10 09:35:43;;;;;;;6.82;3.22;;;;;;;24.96;47.62;95017.16;4967848;28;20037;-83
2021/09/10 09:38:13;;;;;;;8.07;2.55;;;;;;;25.83;46.28;95021.66;4967301;28;20391;-83
2021/09/10 09:40:39;;;;;;;16.70;3.35;;;;;;;24.90;45.62;95018.19;4935733;28;20023;-83
2021/09/10 09:43:22;;;;;;;4.35;2.72;;;;;;;25.01;46.27;95021.69;4952160;28;20023;-83
2021/09/10 09:45:48;;;;;;;3.90;2.33;;;;;;;25.31;46.49;95013.81;4966732;28;20516;-83
2021/09/10 09:48:14;;;;;;;4.15;2.20;;;;;;;25.19;46.19;95007.97;4936248;28;20527;-83
2021/09/10 09:50:40;;;;;;;5.45;2.40;;;;;;;25.75;46.32;95008.13;4934888;28;20027;-80
2021/09/10 09:53:06;;;;;;;4.78;2.40;;;;;;;25.26;45.22;95005.06;4951522;28;20038;-83
2021/09/10 09:55:33;;;;;;;6.65;3.05;;;;;;;24.12;45.74;95000.44;4951753;28;20400;-82
2021/09/10 09:57:59;;;;;;;6.50;3.05;;;;;;;23.51;48.85;94996.44;4954326;28;20037;-84
2021/09/10 10:00:25;;;;;;;3.75;2.28;;;;;;;24.91;46.25;95005.72;4955922;28;20027;-84
2021/09/10 10:02:50;;;;;;;3.83;2.10;;;;;;;25.70;41.71;94998.28;4952179;28;20445;-84
2021/09/10 10:05:16;;;;;;;3.65;1.88;;;;;;;25.26;41.24;94991.81;4953743;29;20413;-84
2021/09/10 10:07:55;;;;;;;5.10;1.90;;;;;;;25.08;40.90;94988.56;4934716;29;20496;-84
2021/09/10 10:10:23;;;;;;;6.78;2.03;;;;;;;25.19;40.60;94994.69;4936121;29;20513;-84
2021/09/10 10:12:49;;;;;;;7.63;2.10;;;;;;;25.99;39.82;94993.28;4936234;29;20043;-84
2021/09/10 10:15:25;;;;;;;7.47;1.77;;;;;;;25.19;38.98;94984.09;4935450;29;20417;-85
2021/09/10 10:17:51;;;;;;;4.03;1.70;;;;;;;25.19;37.25;94978.78;4936576;29;20113;-83
2021/09/10 10:20:44;;;;;;;4.40;1.58;;;;;;;24.98;39.93;94991.16;4934591;29;20030;-84
2021/09/10 10:23:47;;;;;;;10.32;2.97;;;;;;;25.05;41.85;94985.63;4953341;29;20031;-83
2021/09/10 10:26:14;;;;;;;6.18;1.77;;;;;;;24.62;38.64;94984.09;4953396;29;20590;-84
2021/09/10 10:28:47;;;;;;;3.70;1.83;;;;;;;23.89;39.55;94995.47;4934775;29;20401;-85
2021/09/10 10:31:12;;;;;;;6.75;1.88;;;;;;;23.34;39.39;94990.44;4920276;29;20532;-83
2021/09/10 10:33:49;;;;;;;3.40;1.88;;;;;;;23.58;40.56;94989.91;4950511;29;20027;-81
2021/09/10 10:36:35;;;;;;;3.25;1.65;;;;;;;24.29;41.12;94995.00;4935791;29;20031;-85
2021/09/10 10:39:15;;;;;;;7.72;2.45;;;;;;;24.48;39.61;94996.97;4935624;29;20452;-82
2021/09/10 10:41:55;;;;;;;2.60;1.55;;;;;;;25.03;39.25;94982.44;4918613;29;20035;-83
2021/09/10 10:44:33;;;;;;;6.43;1.90;;;;;;;24.23;37.66;94988.88;4905370;29;20035;-84
2021/09/10 10:47:11;;;;;;;2.92;1.65;;;;;;;24.77;37.26;94983.34;4951713;29;20035;-83
2021/09/10 10:49:41;;;;;;;2.72;1.50;;;;;;;25.02;37.62;94978.19;4935148;29;20093;-83
2021/09/10 10:52:29;;;;;;;6.75;2.17;;;;;;;24.99;37.90;94973.41;4935683;29;20420;-82
2021/09/10 10:55:18;;;;;;;2.67;1.80;;;;;;;24.12;38.48;94969.47;4934459;29;20038;-83
2021/09/10 10:57:44;;;;;;;3.92;1.67;;;;;;;24.51;38.09;94964.69;4919670;29;20134;-81
2021/09/10 11:00:32;;;;;;;5.65;1.50;;;;;;;24.51;38.15;94969.97;4934495;29;20050;-81
2021/09/10 11:03:13;;;;;;;2.50;1.90;;;;;;;24.69;37.06;94955.50;4968449;28;20046;-84
2021/09/10 11:05:43;;;;;;;2.90;1.40;;;;;;;24.55;36.05;94957.03;4970641;28;20062;-81
2021/09/10 11:08:08;;;;;;;2.30;1.40;;;;;;;24.97;37.60;94952.47;4952785;28;20045;-82
2021/09/10 11:10:33;;;;;;;2.42;1.52;;;;;;;25.41;38.09;94952.84;4960159;28;20039;-81
2021/09/10 11:12:59;;;;;;;4.03;1.70;;;;;;;25.03;37.16;94946.13;4963723;28;20045;-84
2021/09/10 11:15:30;;;;;;;2.60;1.60;;;;;;;25.32;39.09;94943.00;4954125;28;20104;-80
2021/09/10 11:17:55;;;;;;;5.28;1.67;;;;;;;25.47;38.08;94946.47;4954855;28;20037;-83
2021/09/10 11:20:34;;;;;;;7.03;1.63;;;;;;;25.22;36.34;94949.09;4970195;28;20413;-81
2021/09/10 11:23:03;;;;;;;4.93;1.33;;;;;;;24.62;37.45;94947.78;4955612;28;20122;-81
2021/09/10 11:25:29;;;;;;;4.82;1.63;;;;;;;24.55;39.63;94957.03;4952559;28;20455;-81
2021/09/10 11:27:54;;;;;;;4.00;1.60;;;;;;;24.87;37.69;94947.13;4970263;28;20035;-82
2021/09/10 11:30:20;;;;;;;5.85;1.58;;;;;;;24.34;37.89;94956.09;4936930;28;20023;-80
2021/09/10 11:32:45;;;;;;;2.35;1.70;;;;;;;24.73;39.21;94953.13;4937793;28;20070;-83
2021/09/10 11:35:22;;;;;;;3.28;1.58;;;;;;;24.11;38.70;94949.34;4970090;28;20039;-83
2021/09/10 11:38:07;;;;;;;7.18;3.15;;;;;;;24.32;39.32;94944.97;4968950;28;20035;-82
2021/09/10 11:40:34;;;;;;;4.68;1.60;;;;;;;24.67;38.35;94939.84;4954289;28;20078;-85
2021/09/10 11:43:21;;;;;;;2.75;1.60;;;;;;;24.64;38.40;94943.03;4952989;28;20027;-83
2021/09/10 11:45:50;;;;;;;4.40;1.50;;;;;;;24.70;38.05;94948.34;4970777;28;20053;-82
2021/09/10 11:48:20;;;;;;;5.90;1.73;;;;;;;24.51;39.46;94948.78;4969808;28;20122;-81
2021/09/10 11:51:14;;;;;;;5.40;1.88;;;;;;;24.05;40.90;94936.28;4968365;28;20110;-85
2021/09/10 11:53:46;;;;;;;5.35;1.80;;;;;;;24.54;40.55;94923.63;4952844;28;20504;-81
2021/09/10 11:56:12;;;;;;;8.38;1.92;;;;;;;25.02;39.37;94931.28;4970016;28;20407;-82
2021/09/10 11:58:44;;;;;;;3.45;1.30;;;;;;;25.16;38.26;94936.88;4970795;28;20066;-84
2021/09/10 12:01:22;;;;;;;2.10;1.67;;;;;;;25.24;37.98;94923.09;4969114;28;20047;-82
2021/09/10 12:03:52;;;;;;;2.72;1.67;;;;;;;24.17;39.91;94929.00;4969676;28;20033;-83
2021/09/10 12:06:48;;;;;;;2.58;1.73;;;;;;;23.99;40.52;94927.53;4954150;28;20452;-84
2021/09/10 12:09:20;;;;;;;2.85;1.60;;;;;;;24.34;39.10;94926.19;4959949;28;20042;-82
2021/09/10 12:12:17;;;;;;;2.65;1.83;;;;;;;24.32;39.67;94929.09;4968955;28;20102;-80
2021/09/10 12:14:53;;;;;;;2.65;1.67;;;;;;;24.34;38.42;94923.53;4953058;28;20038;-82
2021/09/10 12:17:24;;;;;;;4.47;1.80;;;;;;;24.95;38.89;94914.00;4967997;28;20035;-83
2021/09/10 12:20:12;;;;;;;2.00;1.50;;;;;;;24.71;39.88;94915.50;4969430;28;20088;-82
2021/09/10 12:22:50;;;;;;;25.88;4.20;;;;;;;23.99;39.03;94921.41;4970089;28;20113;-85
2021/09/10 12:25:34;;;;;;;7.63;1.90;;;;;;;24.23;40.10;94922.69;4968123;28;20022;-85
2021/09/10 12:28:06;;;;;;;5.43;1.40;;;;;;;24.46;40.59;94911.69;4969569;28;20413;-81
2021/09/10 12:30:55;;;;;;;2.95;2.03;;;;;;;24.49;39.92;94916.47;4967397;28;20081;-85
2021/09/10 12:33:22;;;;;;;5.60;2.08;;;;;;;24.87;39.77;94919.81;4963671;28;20057;-82
2021/09/10 12:35:52;;;;;;;5.57;1.70;;;;;;;24.50;39.69;94912.75;4968692;28;20027;-81
2021/09/10 12:38:17;;;;;;;;;;;;;;;24.65;40.13;94920.78;4968508;28;20492;-83
2021/09/10 12:40:53;;;;;;;2.10;1.60;;;;;;;24.63;39.34;94911.47;4984536;28;19941;-82
2021/09/10 12:43:20;;;;;;;4.82;1.75;;;;;;;24.61;39.66;94919.69;4968793;28;20050;-82
2021/09/10 12:45:45;;;;;;;2.08;1.58;;;;;;;24.55;39.99;94918.09;4968841;28;20109;-82
2021/09/10 12:48:11;;;;;;;3.45;1.50;;;;;;;24.86;40.50;94913.72;4967815;28;20424;-82
2021/09/10 12:50:37;;;;;;;2.95;2.15;;;;;;;24.27;40.23;94905.25;4968678;28;20050;-84
2021/09/10 12:53:03;;;;;;;2.67;1.60;;;;;;;24.46;41.95;94910.88;4952592;28;20041;-84
2021/09/10 12:55:29;;;;;;;52.22;11.65;;;;;;;24.05;40.28;94912.47;4951763;28;20041;-82
2021/09/10 12:57:55;;;;;;;6.18;2.05;;;;;;;24.54;40.37;94902.44;4968777;28;20030;-83
2021/09/10 13:00:21;;;;;;;55.53;5.07;;;;;;;24.18;41.57;94904.09;4968825;28;20460;-83
2021/09/10 13:02:47;;;;;;;4.65;1.55;;;;;;;24.46;41.16;94898.44;4935004;29;20091;-84
2021/09/10 13:05:12;;;;;;;2.75;1.70;;;;;;;24.61;41.38;94903.81;4949572;29;20067;-79
2021/09/10 13:07:38;;;;;;;4.00;1.50;;;;;;;24.65;41.20;94899.59;4933447;29;20039;-84
2021/09/10 13:10:04;;;;;;;23.77;4.50;;;;;;;24.72;40.28;94898.53;4948305;29;20027;-83
2021/09/10 13:12:29;;;;;;;3.03;1.92;;;;;;;24.57;40.40;94896.63;4932525;29;20498;-82
2021/09/10 13:14:55;;;;;;;2.45;1.67;;;;;;;24.56;40.20;94895.81;4917302;29;20114;-84
2021/09/10 13:17:21;;;;;;;4.13;1.50;;;;;;;24.09;40.35;94895.03;4932207;29;20027;-81
2021/09/10 13:19:47;;;;;;;3.38;1.75;;;;;;;24.23;40.67;94888.25;4917382;29;20093;-76
2021/09/10 13:22:13;;;;;;;4.95;2.05;;;;;;;24.44;40.89;94887.28;4916083;29;20428;-83
2021/09/10 13:24:39;;;;;;;45.53;5.65;;;;;;;24.43;39.65;94893.66;4917514;29;20457;-85
2021/09/10 13:27:05;;;;;;;2.22;1.73;;;;;;;24.16;38.89;94892.97;4949278;29;20042;-84
2021/09/10 13:29:31;;;;;;;2.10;1.63;;;;;;;24.08;39.61;94893.44;4933319;29;20032;-82
2021/09/10 13:31:56;;;;;;;1.80;1.33;;;;;;;23.97;40.11;94887.28;4953336;28;20023;-83
2021/09/10 13:34:24;;;;;;;4.28;1.63;;;;;;;23.99;40.89;94894.97;4953639;29;20035;-81
2021/09/10 13:36:50;;;;;;;6.35;4.07;;;;;;;23.95;39.52;94888.59;4954139;29;20019;-82
2021/09/10 13:39:16;;;;;;;3.47;1.80;;;;;;;24.01;39.96;94892.88;4935564;29;20031;-82
2021/09/10 13:41:41;;;;;;;2.25;1.55;;;;;;;24.40;39.51;94890.75;4907068;29;20118;-81
2021/09/10 13:44:06;;;;;;;19.60;7.18;;;;;;;24.60;39.04;94886.31;4916415;29;20023;-83
2021/09/10 13:46:32;;;;;;;3.63;1.77;;;;;;;24.61;40.14;94887.91;4917866;29;20036;-82
2021/09/10 13:48:57;;;;;;;2.60;1.73;;;;;;;24.71;38.75;94881.03;4916729;29;20090;-82
2021/09/10 13:51:23;;;;;;;33.15;5.60;;;;;;;24.36;39.67;94889.66;4917260;29;20032;-82
2021/09/10 13:53:50;;;;;;;8.80;2.17;;;;;;;24.04;39.44;94884.41;4901973;29;20030;-82
2021/09/10 13:56:16;;;;;;;4.32;1.73;;;;;;;23.56;40.23;94886.22;4932132;29;20039;-82
2021/09/10 13:58:41;;;;;;;22.05;4.25;;;;;;;23.66;41.33;94893.44;4933267;29;20026;-81
2021/09/10 14:01:07;;;;;;;2.50;1.42;;;;;;;23.52;41.28;94876.38;4936466;28;20043;-83
2021/09/10 14:03:32;;;;;;;31.23;5.18;;;;;;;23.77;40.79;94887.16;4947450;28;20070;-85
2021/09/10 14:05:58;;;;;;;2.35;1.50;;;;;;;23.99;41.13;94884.38;4970783;28;20023;-78
2021/09/10 14:08:23;;;;;;;28.77;8.20;;;;;;;23.71;40.92;94896.09;4972161;28;20428;-81
2021/09/10 14:10:48;;;;;;;6.25;1.80;;;;;;;23.63;41.83;94896.56;4971607;28;20030;-86
2021/09/10 14:13:14;;;;;;;4.25;1.75;;;;;;;23.57;41.09;94890.44;4955036;28;20050;-87
2021/09/10 14:15:39;;;;;;;3.65;1.50;;;;;;;23.68;40.93;94886.03;4972170;28;20038;-83
2021/09/10 14:18:05;;;;;;;1.90;1.60;;;;;;;24.01;40.91;94888.38;4970954;28;20572;-85
2021/09/10 14:20:30;;;;;;;2.67;1.60;;;;;;;24.42;39.72;94876.19;4956507;28;20023;-88
2021/09/10 14:22:56;;;;;;;5.22;1.90;;;;;;;24.34;39.79;94878.53;4954991;28;20535;-88
2021/09/10 14:25:21;;;;;;;3.70;3.33;;;;;;;24.04;40.23;94877.28;4971928;28;20559;-85
2021/09/10 14:27:46;;;;;;;21.33;19.30;;;;;;;23.79;41.19;94873.69;4972406;28;20030;-86
2021/09/10 14:30:12;;;;;;;5.82;1.90;;;;;;;23.67;40.65;94880.97;4974948;28;20030;-87
2021/09/10 14:32:37;;;;;;;2.10;1.60;;;;;;;23.61;41.16;94886.25;4967867;28;20047;-87
2021/09/10 14:35:03;;;;;;;4.50;1.92;;;;;;;23.44;42.13;94885.56;4954732;28;20510;-87
2021/09/10 14:37:29;;;;;;;31.80;9.90;;;;;;;23.50;40.57;94883.78;4971678;28;20085;-85
2021/09/10 14:39:55;;;;;;;90.80;8.23;;;;;;;23.71;41.09;94890.00;4971182;28;20030;-81
2021/09/10 14:42:21;;;;;;;6.45;2.30;;;;;;;23.84;40.82;94881.63;4954552;28;20557;-89
2021/09/10 14:44:46;;;;;;;2.72;1.70;;;;;;;24.09;39.88;94884.44;4970635;28;20022;-86
2021/09/10 14:47:12;;;;;;;13.20;11.80;;;;;;;24.04;40.00;94879.13;4955172;28;20497;-86
2021/09/10 14:49:37;;;;;;;3.75;2.20;;;;;;;24.06;39.87;94883.09;4970699;28;20552;-86
2021/09/10 14:52:04;;;;;;;3.10;2.50;;;;;;;23.94;40.53;94884.34;4954708;28;20507;-82
2021/09/10 14:54:31;;;;;;;7.28;1.60;;;;;;;24.01;40.05;94880.44;4954899;28;20061;-84
2021/09/10 14:56:56;;;;;;;3.55;2.15;;;;;;;23.79;40.46;94882.38;4954716;28;20031;-86
2021/09/10 15:01:53;;;;;;;2.35;2.10;;;;;;;23.57;41.02;94887.78;4954715;28;20046;-86
2021/09/10 15:04:18;;;;;;;1.75;1.33;;;;;;;23.60;41.05;94886.47;4954508;28;20051;-83
2021/09/10 15:06:44;;;;;;;46.50;5.82;;;;;;;23.52;41.06;94890.41;4953739;28;20031;-83
2021/09/10 15:09:09;;;;;;;3.58;1.65;;;;;;;23.40;41.28;94889.78;4954707;28;20049;-83
2021/09/10 15:11:35;;;;;;;2.20;1.42;;;;;;;23.35;40.83;94886.25;4970830;28;20086;-85
2021/09/10 15:14:00;;;;;;;3.65;1.50;;;;;;;23.25;40.78;94886.16;4953703;28;20047;-86
2021/09/10 15:16:26;;;;;;;4.30;1.95;;;;;;;23.18;40.61;94888.22;4955080;28;20035;-82
2021/09/10 15:18:51;;;;;;;3.45;2.15;;;;;;;23.14;39.78;94889.75;4969809;28;20520;-86
2021/09/10 15:21:18;;;;;;;62.97;5.60;;;;;;;22.87;39.25;94885.25;4938512;28;20030;-84
2021/09/10 15:23:43;;;;;;;19.52;3.40;;;;;;;22.81;39.76;94896.03;4953561;28;20027;-85
2021/09/10 15:26:09;;;;;;;2.35;1.73;;;;;;;22.80;40.47;94892.56;4954685;28;20436;-88
2021/09/10 15:28:34;;;;;;;2.72;1.67;;;;;;;22.63;39.88;94894.50;4953424;28;20058;-85
2021/09/10 15:31:00;;;;;;;5.20;2.13;;;;;;;22.68;39.79;94899.84;4953584;28;20039;-89
2021/09/10 15:33:27;;;;;;;3.63;1.88;;;;;;;22.77;40.35;94908.13;4971395;28;20050;-84
2021/09/10 15:35:53;;;;;;;1.75;1.60;;;;;;;22.74;39.80;94903.34;4969179;28;20037;-85
2021/09/10 15:38:18;;;;;;;4.60;1.83;;;;;;;22.60;39.74;94898.41;4971230;28;20031;-85
2021/09/10 15:40:44;;;;;;;12.13;3.13;;;;;;;22.42;39.08;94890.78;4968507;28;20034;-85
2021/09/10 15:43:09;;;;;;;2.97;1.55;;;;;;;22.53;39.19;94891.72;4954743;28;20038;-85
2021/09/10 15:45:36;;;;;;;5.85;1.60;;;;;;;22.47;38.81;94895.34;4936707;28;20023;-85
2021/09/10 15:48:02;;;;;;;2.45;1.38;;;;;;;22.30;38.78;94890.13;4969887;28;20059;-84
2021/09/10 15:50:27;;;;;;;2.92;1.30;;;;;;;22.25;39.42;94886.63;4969489;28;20053;-85
2021/09/10 15:52:53;;;;;;;3.08;1.45;;;;;;;22.18;39.10;94888.63;4968625;28;20030;-83
2021/09/10 15:55:20;;;;;;;4.57;1.70;;;;;;;22.00;38.77;94885.22;4970962;28;20035;-82
2021/09/10 15:57:45;;;;;;;3.53;1.77;;;;;;;21.92;39.10;94874.28;4968743;28;20030;-86
2021/09/10 16:00:12;;;;;;;3.10;1.90;;;;;;;21.77;39.60;94879.34;4953525;28;20042;-85
2021/09/10 16:02:38;;;;;;;3.05;1.55;;;;;;;21.76;39.63;94890.91;4968026;28;20101;-85
2021/09/10 16:05:04;;;;;;;2.40;1.55;;;;;;;21.69;39.63;94885.81;4953661;28;20030;-86
2021/09/10 16:07:30;;;;;;;1.30;1.20;;;;;;;21.65;39.80;94883.88;4969213;28;20027;-86
2021/09/10 16:09:55;;;;;;;2.55;1.58;;;;;;;21.60;39.33;94891.72;4964340;28;20497;-87
2021/09/10 16:12:21;;;;;;;3.75;1.85;;;;;;;21.52;39.58;94885.81;4958641;28;20397;-86
2021/09/10 16:14:46;;;;;;;4.70;1.75;;;;;;;21.40;40.05;94887.72;4984543;28;20418;-87
2021/09/10 16:17:12;;;;;;;6.30;1.73;;;;;;;21.33;39.40;94881.00;4969634;28;20417;-83
2021/09/10 16:19:39;;;;;;;2.80;1.65;;;;;;;21.27;40.09;94885.41;4984556;28;20082;-86
2021/09/10 16:22:04;;;;;;;6.70;1.70;;;;;;;21.18;40.58;94888.66;4985677;28;20436;-85
2021/09/10 16:24:31;;;;;;;5.70;1.73;;;;;;;21.02;40.40;94892.84;4968262;28;20026;-87
2021/09/10 16:26:57;;;;;;;5.07;1.80;;;;;;;20.96;41.00;94888.50;4970564;28;20480;-86
2021/09/10 16:29:22;;;;;;;3.55;2.15;;;;;;;20.94;40.25;94888.75;4968975;28;20046;-87
2021/09/10 16:31:48;;;;;;;4.10;1.88;;;;;;;20.85;40.82;94884.88;4968187;28;20035;-86
2021/09/10 16:34:13;;;;;;;3.95;1.75;;;;;;;20.78;40.75;94875.53;4969146;28;20041;-87
2021/09/10 16:36:39;;;;;;;2.17;1.95;;;;;;;20.64;41.34;94880.28;4983615;28;20035;-87
2021/09/10 16:39:04;;;;;;;4.28;1.77;;;;;;;20.54;40.86;94881.91;4949817;29;20518;-88